METAR AND TAF INFORMATION
METAR FOR LTCM
ADDS - METARS form results

(0934 UTC 16 October 2018)
Data provider http://aviationweather.gov/metar/data/
 
METAR text: LTCM 160850Z 05005KT 9999 BKN030 BKN080 21/18 Q1021
Conditions at: LTCM (SINOP AIRPORT , TR) observed 0850 UTC 16 October 2018
Temperature: 21.0°C (70°F)
Dewpoint: 18.0°C (64°F) [RH = 83%]
Pressure (altimeter): 30.15 inches Hg (1021.0 mb)
Winds: from the NE (50 degrees) at 6 MPH (5 knots; 2.6 m/s)
Visibility: 6 or more miles (10+ km)
Ceiling: 3000 feet AGL
Clouds: broken clouds at 3000 feet AGL
broken clouds at 8000 feet AGL
Weather: no significant weather observed at this time

Forecast for: LTCM (SINOP AIRPORT , TR)
Text: TAF LTCM 160740Z 1609/1618 08009KT 9999 FEW012 SCT030 BKN100
Forecast period: 0900 to 1800 UTC 16 October 2018
Forecast type: FROM: standard forecast or significant change
Winds: from the E (80 degrees) at 10 MPH (9 knots; 4.6 m/s)
Visibility: 6 or more miles 10+ km)
Ceiling: 10000 feet AGL
Clouds: few clouds at 1200 feet AGL
scattered clouds at 3000 feet AGL
broken clouds at 10000 feet AGL
Weather: no significant weather forecast for this period

 AIRPORT MAP

 RUNWAY INFORMATION

 AIRPORT FREQUENCIES

 AIRPORT NEAR NAVIGATION AIDS
Type VOR-DME Name Sinop Frequency 114000 KHZ
Type NDB Name Sinop Frequency 465 KHZ



Copyright © 2011 - 2018 BirgenAir Virtual Airlines. All rights reserved. Developed by Goktug Unver